createdAt,value
2019-03-02T00:02:24.247Z,29.17
2019-03-02T00:04:53.336Z,30.37
2019-03-02T00:07:21.609Z,30.67
2019-03-02T00:09:49.864Z,31.37
2019-03-02T00:12:18.128Z,31.90
2019-03-02T00:14:46.408Z,31.63
2019-03-02T00:17:15.495Z,34.13
2019-03-02T00:19:44.659Z,33.17
2019-03-02T00:22:12.918Z,32.73
2019-03-02T00:24:42.270Z,35.43
2019-03-02T00:27:10.635Z,35.47
2019-03-02T00:29:38.925Z,39.03
2019-03-02T00:32:09.581Z,37.03
2019-03-02T00:34:37.186Z,37.13
2019-03-02T00:37:05.446Z,40.50
2019-03-02T00:39:33.733Z,42.17
2019-03-02T00:42:02.018Z,41.10
2019-03-02T00:44:30.279Z,42.27
2019-03-02T00:46:59.647Z,44.90
2019-03-02T00:49:28.685Z,43.30
2019-03-02T00:51:56.947Z,44.90
2019-03-02T00:54:25.207Z,45.67
2019-03-02T00:56:53.472Z,46.00
2019-03-02T00:59:21.753Z,48.37
2019-03-02T01:01:50.018Z,51.10
2019-03-02T01:04:18.307Z,52.07
2019-03-02T01:06:48.770Z,51.43
2019-03-02T01:09:16.575Z,51.07
2019-03-02T01:11:44.839Z,49.37
2019-03-02T01:14:13.097Z,49.07
2019-03-02T01:16:41.358Z,47.30
2019-03-02T01:19:09.623Z,49.60
2019-03-02T01:21:41.282Z,48.17
2019-03-02T01:24:07.890Z,47.33
2019-03-02T01:26:36.149Z,48.43
2019-03-02T01:29:04.547Z,48.00
2019-03-02T01:31:32.805Z,47.70
2019-03-02T01:34:04.792Z,48.20
2019-03-02T01:36:32.235Z,49.63
2019-03-02T01:39:01.037Z,48.40
2019-03-02T01:41:29.301Z,47.63
2019-03-02T01:43:57.560Z,47.37
2019-03-02T01:46:25.849Z,47.17
2019-03-02T01:48:54.110Z,46.60
2019-03-02T01:51:23.111Z,48.60
2019-03-02T01:53:52.213Z,46.70
2019-03-02T01:56:20.476Z,47.33
2019-03-02T01:58:48.733Z,47.90
2019-03-02T02:01:16.995Z,48.87
2019-03-02T02:03:47.053Z,47.47
2019-03-02T02:06:15.266Z,52.23
2019-03-02T02:08:43.526Z,48.10
2019-03-02T02:11:14.638Z,48.33
2019-03-02T02:13:42.827Z,47.20
2019-03-02T02:16:11.916Z,47.83
2019-03-02T02:18:40.171Z,48.07
2019-03-02T02:21:08.454Z,49.07
2019-03-02T02:23:38.770Z,49.23
2019-03-02T02:26:07.708Z,51.37
2019-03-02T02:28:36.704Z,51.97
2019-03-02T02:31:06.110Z,51.77
2019-03-02T02:33:42.618Z,51.23
2019-03-02T02:36:05.003Z,50.23
2019-03-02T02:38:33.254Z,47.70
2019-03-02T02:41:01.514Z,48.20
2019-03-02T02:43:29.776Z,48.63
2019-03-02T02:45:58.038Z,49.03
2019-03-02T02:48:31.204Z,48.00
2019-03-02T02:50:56.287Z,49.63
2019-03-02T02:53:24.553Z,47.87
2019-03-02T02:55:52.816Z,48.17
2019-03-02T02:58:21.074Z,46.70
2019-03-02T03:00:50.274Z,49.20
2019-03-02T03:03:20.933Z,49.43
2019-03-02T03:05:53.877Z,48.00
2019-03-02T03:08:19.286Z,49.87
2019-03-02T03:10:47.547Z,48.93
2019-03-02T03:13:18.478Z,50.53
2019-03-02T03:15:48.217Z,51.80
2019-03-02T03:18:16.481Z,47.97
2019-03-02T03:20:48.811Z,48.17
2019-03-02T03:23:14.746Z,49.23
2019-03-02T03:25:42.998Z,50.53
2019-03-02T03:28:11.264Z,49.33
2019-03-02T03:30:40.152Z,49.77
2019-03-02T03:33:08.630Z,47.97
2019-03-02T03:35:36.953Z,50.23
2019-03-02T03:38:05.257Z,50.30
2019-03-02T03:40:33.527Z,50.20
2019-03-02T03:43:03.358Z,48.50
2019-03-02T03:45:31.773Z,49.10
2019-03-02T03:48:00.041Z,50.60
2019-03-02T03:50:28.313Z,51.83
2019-03-02T03:52:56.578Z,49.43
2019-03-02T03:55:27.368Z,47.60
2019-03-02T03:58:00.622Z,48.70
2019-03-02T04:00:24.847Z,48.60
2019-03-02T04:02:53.113Z,49.03
2019-03-02T04:05:21.367Z,47.30
2019-03-02T04:07:51.428Z,47.97
2019-03-02T04:10:25.751Z,49.30
2019-03-02T04:12:49.643Z,48.43
2019-03-02T04:15:17.904Z,47.33
2019-03-02T04:17:46.187Z,47.80
2019-03-02T04:20:20.325Z,49.43
2019-03-02T04:22:49.843Z,49.70
2019-03-02T04:25:19.653Z,49.63
2019-03-02T04:27:53.302Z,48.40
2019-03-02T04:30:18.095Z,47.90
2019-03-02T04:32:46.364Z,46.60
2019-03-02T04:35:14.637Z,46.53
2019-03-02T04:37:42.893Z,47.00
2019-03-02T04:40:11.153Z,46.60
2019-03-02T04:42:39.438Z,46.47
2019-03-02T04:45:09.844Z,46.17
2019-03-02T04:47:38.097Z,46.50
2019-03-02T04:50:08.011Z,46.70
2019-03-02T04:52:36.281Z,44.97
2019-03-02T04:55:09.434Z,45.27
2019-03-02T04:57:37.405Z,43.63
2019-03-02T05:00:09.290Z,43.87
2019-03-02T05:02:37.550Z,42.57
2019-03-02T05:05:08.376Z,40.73
2019-03-02T05:07:35.991Z,39.50
2019-03-02T05:10:06.186Z,38.97
2019-03-02T05:12:34.442Z,38.93
2019-03-02T05:15:02.702Z,40.03
2019-03-02T05:17:30.967Z,40.10
2019-03-02T05:20:00.951Z,38.83
2019-03-02T05:22:29.234Z,40.77
2019-03-02T05:24:57.494Z,42.03
2019-03-02T05:27:28.791Z,41.40
2019-03-02T05:29:55.742Z,42.27
2019-03-02T05:32:24.021Z,42.17
2019-03-02T05:34:52.274Z,40.93
2019-03-02T05:37:20.550Z,40.63
2019-03-02T05:39:49.567Z,41.97
2019-03-02T05:42:18.802Z,41.53
2019-03-02T05:44:47.062Z,39.63
2019-03-02T05:47:15.324Z,33.30
2019-03-02T05:49:43.587Z,27.20
2019-03-02T05:52:14.462Z,23.10
2019-03-02T05:54:42.437Z,21.67
2019-03-02T05:57:10.770Z,21.57
2019-03-02T05:59:39.024Z,20.67
2019-03-02T06:02:07.366Z,19.80
2019-03-02T06:04:35.629Z,20.47
2019-03-02T06:07:03.928Z,22.10
2019-03-02T06:09:32.172Z,23.57
2019-03-02T06:12:00.430Z,22.60
2019-03-02T06:14:30.510Z,24.07
2019-03-02T06:16:58.680Z,22.40
2019-03-02T06:19:26.931Z,23.10
2019-03-02T06:21:55.208Z,22.97
2019-03-02T06:24:23.478Z,24.70
2019-03-02T06:26:51.728Z,24.47
2019-03-02T06:29:19.999Z,25.37
2019-03-02T06:31:50.687Z,22.07
2019-03-02T06:34:19.802Z,22.33
2019-03-02T06:36:48.309Z,21.20
2019-03-02T06:39:16.563Z,21.60
2019-03-02T06:41:44.829Z,20.57
2019-03-02T06:44:13.100Z,21.53
2019-03-02T06:46:41.351Z,20.97
2019-03-02T06:49:09.623Z,20.30
2019-03-02T06:51:37.875Z,21.17
2019-03-02T06:54:09.131Z,20.50
2019-03-02T06:56:39.312Z,21.03
2019-03-02T06:59:06.121Z,19.73
2019-03-02T07:01:34.395Z,20.30
2019-03-02T07:04:02.666Z,20.57
2019-03-02T07:06:30.924Z,19.17
2019-03-02T07:08:59.196Z,22.53
2019-03-02T07:11:29.924Z,29.53
2019-03-02T07:13:57.458Z,27.63
2019-03-02T07:16:25.754Z,23.80
2019-03-02T07:18:55.658Z,22.37
2019-03-02T07:21:23.923Z,21.13
2019-03-02T07:23:52.197Z,24.47
2019-03-02T07:26:20.968Z,25.77
2019-03-02T07:28:49.313Z,22.50
2019-03-02T07:31:17.568Z,21.40
2019-03-02T07:33:45.845Z,22.17
2019-03-02T07:36:14.109Z,21.47
2019-03-02T07:38:42.384Z,21.37
2019-03-02T07:41:10.653Z,21.00
2019-03-02T07:43:42.134Z,19.23
2019-03-02T07:46:11.830Z,18.40
2019-03-02T07:48:38.931Z,18.77
2019-03-02T07:51:07.197Z,18.83
2019-03-02T07:53:35.455Z,17.40
2019-03-02T07:56:03.749Z,17.87
2019-03-02T07:58:32.006Z,18.87
2019-03-02T08:01:00.270Z,18.57
2019-03-02T08:03:28.537Z,20.63
2019-03-02T08:05:56.800Z,21.30
2019-03-02T08:08:25.067Z,21.23
2019-03-02T08:10:53.328Z,23.17
2019-03-02T08:13:21.591Z,26.07
2019-03-02T08:15:49.861Z,28.07
2019-03-02T08:18:21.443Z,27.57
2019-03-02T08:20:48.105Z,31.00
2019-03-02T08:23:16.373Z,30.57
2019-03-02T08:25:44.632Z,31.03
2019-03-02T08:28:12.896Z,32.80
2019-03-02T08:30:41.184Z,32.33
2019-03-02T08:33:09.444Z,32.33
2019-03-02T08:35:37.709Z,30.97
2019-03-02T08:38:06.388Z,32.53
2019-03-02T08:40:34.733Z,32.17
2019-03-02T08:43:02.998Z,30.93
2019-03-02T08:45:31.891Z,31.20
2019-03-02T08:48:00.195Z,31.27
2019-03-02T08:50:28.478Z,31.57
2019-03-02T08:52:56.738Z,32.37
2019-03-02T08:55:25.012Z,32.17
2019-03-02T08:57:53.844Z,33.33
2019-03-02T09:00:24.410Z,31.63
2019-03-02T09:02:55.275Z,34.87
2019-03-02T09:05:23.567Z,33.97
2019-03-02T09:07:52.641Z,34.03
2019-03-02T09:10:21.825Z,33.60
2019-03-02T09:12:50.234Z,34.57
2019-03-02T09:15:22.264Z,33.37
2019-03-02T09:17:54.134Z,33.80
2019-03-02T09:20:20.631Z,34.30
2019-03-02T09:22:48.890Z,34.57
2019-03-02T09:25:20.138Z,33.77
2019-03-02T09:27:48.555Z,34.57
2019-03-02T09:30:23.508Z,34.07
2019-03-02T09:32:53.237Z,34.33
2019-03-02T09:35:21.526Z,33.87
2019-03-02T09:37:49.782Z,35.80
2019-03-02T09:40:19.384Z,33.33
2019-03-02T09:42:47.645Z,32.50
2019-03-02T09:45:17.052Z,32.77
2019-03-02T09:47:47.515Z,32.63
2019-03-02T09:50:16.843Z,33.27
2019-03-02T09:52:45.738Z,32.83
2019-03-02T09:55:18.387Z,32.50
2019-03-02T09:57:47.464Z,32.00
2019-03-02T10:00:25.600Z,30.00
2019-03-02T10:02:53.545Z,26.37
2019-03-02T10:05:21.814Z,27.63
2019-03-02T10:07:50.090Z,28.30
2019-03-02T10:10:18.691Z,28.13
2019-03-02T10:12:51.015Z,28.47
2019-03-02T10:15:19.474Z,31.47
2019-03-02T10:17:47.746Z,30.33
2019-03-02T10:20:15.998Z,31.30
2019-03-02T10:22:44.277Z,29.13
2019-03-02T10:25:13.982Z,28.57
2019-03-02T10:27:42.237Z,28.10
2019-03-02T10:30:16.180Z,28.40
2019-03-02T10:32:44.444Z,28.23
2019-03-02T10:35:16.986Z,29.60
2019-03-02T10:37:44.378Z,27.80
2019-03-02T10:40:15.332Z,27.93
2019-03-02T10:42:43.584Z,28.10
2019-03-02T10:45:13.993Z,26.80
2019-03-02T10:47:42.249Z,28.93
2019-03-02T10:50:13.355Z,26.77
2019-03-02T10:52:41.628Z,27.60
2019-03-02T10:55:13.568Z,29.70
2019-03-02T10:57:41.865Z,27.53
2019-03-02T11:00:29.251Z,29.33
2019-03-02T11:03:00.566Z,27.73
2019-03-02T11:05:42.470Z,28.73
2019-03-02T11:08:25.399Z,29.07
2019-03-02T11:11:05.420Z,29.03
2019-03-02T11:13:45.773Z,29.93
2019-03-02T11:16:27.775Z,29.70
2019-03-02T11:19:00.660Z,30.23
2019-03-02T11:21:42.520Z,30.83
2019-03-02T11:24:30.684Z,29.37
2019-03-02T11:27:13.963Z,28.80
2019-03-02T11:29:51.272Z,29.20
2019-03-02T11:32:21.511Z,29.27
2019-03-02T11:35:10.343Z,28.23
2019-03-02T11:37:58.001Z,29.60
2019-03-02T11:40:29.594Z,30.17
2019-03-02T11:42:58.004Z,34.53
2019-03-02T11:45:43.784Z,31.87
2019-03-02T11:48:17.180Z,29.83
2019-03-02T11:50:51.017Z,28.97
2019-03-02T11:53:24.137Z,29.83
2019-03-02T11:56:10.556Z,28.73
2019-03-02T11:58:49.651Z,29.17
2019-03-02T12:01:35.713Z,28.70
2019-03-02T12:04:14.985Z,27.03
2019-03-02T12:06:49.478Z,27.40
2019-03-02T12:09:31.677Z,28.30
2019-03-02T12:12:19.939Z,28.73
2019-03-02T12:14:58.371Z,27.60
2019-03-02T12:17:37.887Z,29.83
2019-03-02T12:20:14.275Z,29.13
2019-03-02T12:22:46.917Z,28.73
2019-03-02T12:25:35.074Z,25.53
2019-03-02T12:28:16.599Z,27.73
2019-03-02T12:30:52.204Z,27.87
2019-03-02T12:33:38.453Z,27.43
2019-03-02T12:36:08.352Z,25.77
2019-03-02T12:38:44.624Z,27.33
2019-03-02T12:41:30.713Z,27.23
2019-03-02T12:44:00.620Z,26.60
2019-03-02T12:46:42.825Z,27.37
2019-03-02T12:49:24.768Z,27.27
2019-03-02T12:52:12.249Z,26.03
2019-03-02T12:54:43.367Z,25.03
2019-03-02T12:57:13.908Z,24.80
2019-03-02T12:59:46.521Z,26.30
2019-03-02T13:02:22.173Z,26.23
2019-03-02T13:04:54.828Z,26.03
2019-03-02T13:07:27.515Z,25.13
2019-03-02T13:09:57.419Z,25.20
2019-03-02T13:12:45.870Z,25.83
2019-03-02T13:15:21.523Z,24.40
2019-03-02T13:17:53.902Z,24.57
2019-03-02T13:20:23.814Z,25.23
2019-03-02T13:22:53.726Z,24.70
2019-03-02T13:25:29.914Z,25.13
2019-03-02T13:28:01.041Z,25.07
2019-03-02T13:30:32.295Z,24.10
2019-03-02T13:33:07.936Z,25.27
2019-03-02T13:35:37.838Z,25.70
2019-03-02T13:38:24.346Z,26.93
2019-03-02T13:40:54.248Z,24.47
2019-03-02T13:43:32.947Z,26.43
2019-03-02T13:46:02.855Z,27.73
2019-03-02T13:48:35.892Z,25.73
2019-03-02T13:51:08.524Z,26.23
2019-03-02T13:53:59.295Z,24.87
2019-03-02T13:56:44.253Z,26.07
2019-03-02T13:59:17.231Z,26.30
2019-03-02T14:01:47.139Z,24.53
2019-03-02T14:04:33.259Z,24.87
2019-03-02T14:07:18.410Z,24.77
2019-03-02T14:09:51.004Z,27.17
2019-03-02T14:12:20.935Z,24.97
2019-03-02T14:14:50.863Z,24.03
2019-03-02T14:17:32.836Z,26.47
2019-03-02T14:20:24.681Z,29.00
2019-03-02T14:22:53.951Z,29.90
2019-03-02T14:25:26.846Z,27.77
2019-03-02T14:27:57.704Z,27.73
2019-03-02T14:30:31.245Z,26.27
2019-03-02T14:33:01.143Z,28.17
2019-03-02T14:35:46.113Z,29.23
2019-03-02T14:38:23.937Z,28.77
2019-03-02T14:40:59.458Z,28.10
2019-03-02T14:43:44.722Z,25.70
2019-03-02T14:46:30.625Z,25.00
2019-03-02T14:49:20.446Z,27.10
2019-03-02T14:51:56.713Z,26.37
2019-03-02T14:54:30.891Z,26.67
2019-03-02T14:57:00.826Z,29.83
2019-03-02T14:59:39.881Z,29.63
2019-03-02T15:02:21.579Z,29.17
2019-03-02T15:04:54.009Z,28.47
2019-03-02T15:07:23.943Z,26.87
2019-03-02T15:10:08.657Z,27.07
2019-03-02T15:12:44.555Z,27.27
2019-03-02T15:15:21.115Z,25.43
2019-03-02T15:17:51.004Z,26.33
2019-03-02T15:20:39.237Z,28.33
2019-03-02T15:23:12.114Z,26.30
2019-03-02T15:25:44.540Z,26.43
2019-03-02T15:28:14.429Z,26.20
2019-03-02T15:30:59.166Z,26.17
2019-03-02T15:33:44.408Z,29.13
2019-03-02T15:36:14.307Z,26.60
2019-03-02T15:39:00.396Z,27.73
2019-03-02T15:41:33.310Z,25.67
2019-03-02T15:44:12.027Z,28.67
2019-03-02T15:46:47.964Z,27.37
2019-03-02T15:49:17.871Z,23.97
2019-03-02T15:51:49.458Z,26.50
2019-03-02T15:54:19.559Z,25.13
2019-03-02T15:57:02.654Z,24.73
2019-03-02T15:59:41.758Z,26.07
2019-03-02T16:02:11.735Z,26.70
2019-03-02T16:04:41.650Z,25.13
2019-03-02T16:07:14.511Z,26.47
2019-03-02T16:10:00.890Z,25.13
2019-03-02T16:12:31.931Z,26.90
2019-03-02T16:15:18.302Z,24.30
2019-03-02T16:18:03.592Z,25.40
2019-03-02T16:20:33.501Z,24.97
2019-03-02T16:23:06.001Z,24.93
2019-03-02T16:25:40.017Z,24.60
2019-03-02T16:28:15.435Z,23.60
2019-03-02T16:31:04.137Z,23.77
2019-03-02T16:33:36.047Z,24.40
2019-03-02T16:36:11.642Z,23.00
2019-03-02T16:38:44.218Z,21.83
2019-03-02T16:41:31.096Z,21.30
2019-03-02T16:44:09.902Z,22.17
2019-03-02T16:46:39.801Z,21.33
2019-03-02T16:49:25.727Z,22.23
2019-03-02T16:52:13.994Z,22.13
2019-03-02T16:54:46.466Z,21.93
2019-03-02T16:57:30.147Z,22.27
2019-03-02T17:00:08.923Z,22.93
2019-03-02T17:02:49.758Z,23.13
2019-03-02T17:05:22.091Z,23.13
2019-03-02T17:07:58.757Z,23.63
2019-03-02T17:10:29.398Z,23.53
2019-03-02T17:13:02.006Z,24.20
2019-03-02T17:15:31.900Z,23.13
2019-03-02T17:18:01.832Z,23.17
2019-03-02T17:20:34.508Z,22.73
2019-03-02T17:23:23.345Z,23.73
2019-03-02T17:25:47.732Z,24.53
2019-03-02T17:28:26.376Z,27.73
2019-03-02T17:31:02.250Z,29.80
2019-03-02T17:33:42.115Z,26.90
2019-03-02T17:36:12.022Z,26.97
2019-03-02T17:38:48.017Z,28.97
2019-03-02T17:41:18.685Z,28.87
2019-03-02T17:44:03.524Z,26.67
2019-03-02T17:46:33.460Z,27.77
2019-03-02T17:49:09.239Z,27.47
2019-03-02T17:51:48.128Z,30.40
2019-03-02T17:54:30.025Z,31.40
2019-03-02T17:57:05.944Z,30.90
2019-03-02T17:59:35.853Z,27.53
2019-03-02T18:02:23.931Z,25.80
2019-03-02T18:04:56.301Z,26.30
2019-03-02T18:07:26.227Z,24.27
2019-03-02T18:10:05.078Z,25.00
2019-03-02T18:12:43.952Z,23.93
2019-03-02T18:15:26.021Z,24.23
2019-03-02T18:17:55.507Z,24.00
2019-03-02T18:20:24.089Z,22.93
2019-03-02T18:22:52.361Z,23.67
2019-03-02T18:25:20.641Z,23.50
2019-03-02T18:27:48.910Z,24.77
2019-03-02T18:30:19.360Z,23.60
2019-03-02T18:32:49.398Z,20.80
2019-03-02T18:35:17.660Z,22.40
2019-03-02T18:37:45.936Z,22.50
2019-03-02T18:40:14.937Z,23.53
2019-03-02T18:42:43.206Z,23.67
2019-03-02T18:45:12.869Z,22.80
2019-03-02T18:47:41.132Z,22.87
2019-03-02T18:50:13.872Z,22.03
2019-03-02T18:52:53.808Z,22.43
2019-03-02T18:55:25.763Z,22.30
2019-03-02T18:57:52.513Z,24.73
2019-03-02T19:00:23.059Z,25.50
2019-03-02T19:02:51.375Z,25.40
2019-03-02T19:05:21.269Z,26.43
2019-03-02T19:07:49.538Z,26.73
2019-03-02T19:10:17.793Z,27.53
2019-03-02T19:12:46.061Z,26.13
2019-03-02T19:15:15.094Z,26.57
2019-03-02T19:17:47.181Z,27.23
2019-03-02T19:20:16.382Z,26.47
2019-03-02T19:22:44.724Z,25.27
2019-03-02T19:25:13.412Z,26.47
2019-03-02T19:27:41.708Z,26.57
2019-03-02T19:30:15.813Z,27.70
2019-03-02T19:32:44.071Z,28.50
2019-03-02T19:35:12.714Z,27.97
2019-03-02T19:37:41.813Z,28.20
2019-03-02T19:40:18.577Z,29.27
2019-03-02T19:42:46.833Z,28.20
2019-03-02T19:45:15.104Z,26.43
2019-03-02T19:47:43.368Z,25.97
2019-03-02T19:50:14.439Z,26.67
2019-03-02T19:52:42.706Z,24.90
2019-03-02T19:55:13.239Z,25.97
2019-03-02T19:57:41.493Z,26.13
2019-03-02T20:00:15.869Z,26.40
2019-03-02T20:02:44.511Z,26.67
2019-03-02T20:05:12.756Z,25.70
2019-03-02T20:07:41.025Z,26.23
2019-03-02T20:10:11.623Z,26.10
2019-03-02T20:12:39.909Z,26.67
2019-03-02T20:15:13.651Z,25.67
2019-03-02T20:17:41.910Z,28.20
2019-03-02T20:20:12.619Z,28.47
2019-03-02T20:22:40.877Z,28.13
2019-03-02T20:25:14.652Z,27.93
2019-03-02T20:27:43.249Z,29.07
2019-03-02T20:30:19.423Z,27.30
2019-03-02T20:32:47.819Z,27.03
2019-03-02T20:35:30.315Z,29.17
2019-03-02T20:37:58.571Z,28.00
2019-03-02T20:40:28.439Z,28.07
2019-03-02T20:42:56.704Z,28.73
2019-03-02T20:45:24.951Z,28.90
2019-03-02T20:47:53.220Z,27.80
2019-03-02T20:50:25.204Z,27.53
2019-03-02T20:52:53.461Z,27.43
2019-03-02T20:55:21.737Z,26.03
2019-03-02T20:57:50.465Z,26.23
2019-03-02T21:00:27.526Z,24.20
2019-03-02T21:02:57.133Z,24.17
2019-03-02T21:05:27.196Z,25.10
2019-03-02T21:07:55.462Z,23.70
2019-03-02T21:10:31.466Z,23.30
2019-03-02T21:12:59.756Z,23.67
2019-03-02T21:15:39.624Z,23.87
2019-03-02T21:18:07.967Z,23.03
2019-03-02T21:20:36.661Z,24.00
2019-03-02T21:23:05.049Z,22.70
2019-03-02T21:25:33.339Z,22.63
2019-03-02T21:28:02.061Z,22.90
2019-03-02T21:30:30.324Z,23.27
2019-03-02T21:32:58.590Z,21.77
2019-03-02T21:35:26.896Z,22.80
2019-03-02T21:37:55.184Z,21.67
2019-03-02T21:40:29.434Z,22.67
2019-03-02T21:42:57.716Z,22.40
2019-03-02T21:45:30.231Z,22.13
2019-03-02T21:47:58.508Z,21.37
2019-03-02T21:50:34.553Z,20.10
2019-03-02T21:53:02.823Z,22.07
2019-03-02T21:55:31.080Z,20.37
2019-03-02T21:57:59.344Z,20.67
2019-03-02T22:00:30.684Z,18.77
2019-03-02T22:02:58.941Z,18.93
2019-03-02T22:05:27.213Z,18.80
2019-03-02T22:07:55.468Z,18.03
2019-03-02T22:10:35.649Z,18.00
2019-03-02T22:13:03.941Z,18.30
2019-03-02T22:15:32.192Z,18.77
2019-03-02T22:18:00.464Z,20.23
2019-03-02T22:20:28.722Z,18.83
2019-03-02T22:22:57.051Z,17.93
2019-03-02T22:25:25.581Z,18.23
2019-03-02T22:27:53.842Z,17.77
2019-03-02T22:30:24.602Z,18.23
2019-03-02T22:32:52.863Z,17.10
2019-03-02T22:35:21.158Z,17.90
2019-03-02T22:37:49.422Z,16.93
2019-03-02T22:40:19.332Z,17.17
2019-03-02T22:42:47.593Z,15.93
2019-03-02T22:45:16.897Z,15.87
2019-03-02T22:47:45.165Z,15.97
2019-03-02T22:50:16.679Z,16.20
2019-03-02T22:52:44.967Z,15.70
2019-03-02T22:55:14.679Z,15.57
2019-03-02T22:57:42.941Z,16.80
2019-03-02T23:00:17.484Z,15.80
2019-03-02T23:02:44.798Z,15.60
2019-03-02T23:05:13.090Z,15.73
2019-03-02T23:07:41.349Z,15.43
2019-03-02T23:10:10.449Z,14.70
2019-03-02T23:12:38.716Z,14.67
2019-03-02T23:15:15.331Z,14.87
2019-03-02T23:17:43.618Z,16.53
2019-03-02T23:20:11.878Z,14.80
2019-03-02T23:22:40.167Z,15.10
2019-03-02T23:25:16.053Z,14.83
2019-03-02T23:27:44.337Z,15.23
2019-03-02T23:30:25.880Z,15.17
2019-03-02T23:32:54.170Z,14.40
2019-03-02T23:35:22.804Z,15.13
2019-03-02T23:37:51.060Z,14.43
2019-03-02T23:40:21.032Z,14.87
2019-03-02T23:42:49.291Z,14.87
2019-03-02T23:45:18.492Z,14.77
2019-03-02T23:47:46.751Z,14.43
2019-03-02T23:50:15.189Z,15.90
2019-03-02T23:52:43.551Z,14.07
2019-03-02T23:55:13.068Z,15.03
2019-03-02T23:57:41.330Z,13.77
